sensor_id;sensor_type;location;lat;lon;timestamp;temperature;humidity
32097;DHT22;18610;49.916;8.284;2023-04-24T00:00:04;10.50;99.90
32097;DHT22;18610;49.916;8.284;2023-04-24T00:02:31;10.50;99.90
32097;DHT22;18610;49.916;8.284;2023-04-24T00:04:59;10.50;99.90
32097;DHT22;18610;49.916;8.284;2023-04-24T00:07:29;10.50;99.90
32097;DHT22;18610;49.916;8.284;2023-04-24T00:09:56;10.50;99.90
32097;DHT22;18610;49.916;8.284;2023-04-24T00:12:23;10.60;99.90
32097;DHT22;18610;49.916;8.284;2023-04-24T00:14:50;10.50;99.90
32097;DHT22;18610;49.916;8.284;2023-04-24T00:17:17;10.60;99.90
32097;DHT22;18610;49.916;8.284;2023-04-24T00:19:45;10.60;99.90
32097;DHT22;18610;49.916;8.284;2023-04-24T00:22:12;10.60;99.90
32097;DHT22;18610;49.916;8.284;2023-04-24T00:24:40;10.60;99.90
32097;DHT22;18610;49.916;8.284;2023-04-24T00:27:06;10.60;99.90
32097;DHT22;18610;49.916;8.284;2023-04-24T00:29:33;10.60;99.90
32097;DHT22;18610;49.916;8.284;2023-04-24T00:32:00;10.60;99.90
32097;DHT22;18610;49.916;8.284;2023-04-24T00:34:26;10.60;99.90
32097;DHT22;18610;49.916;8.284;2023-04-24T00:36:53;10.50;99.90
32097;DHT22;18610;49.916;8.284;2023-04-24T00:39:20;10.50;99.90
32097;DHT22;18610;49.916;8.284;2023-04-24T00:41:48;10.50;99.90
32097;DHT22;18610;49.916;8.284;2023-04-24T00:44:16;10.40;99.90
32097;DHT22;18610;49.916;8.284;2023-04-24T00:46:43;10.40;99.90
32097;DHT22;18610;49.916;8.284;2023-04-24T00:49:10;10.40;99.90
32097;DHT22;18610;49.916;8.284;2023-04-24T00:51:37;10.40;99.90
32097;DHT22;18610;49.916;8.284;2023-04-24T00:54:03;10.40;99.90
32097;DHT22;18610;49.916;8.284;2023-04-24T00:56:31;10.40;99.90
32097;DHT22;18610;49.916;8.284;2023-04-24T00:58:59;10.40;99.90
32097;DHT22;18610;49.916;8.284;2023-04-24T01:01:26;10.50;99.90
32097;DHT22;18610;49.916;8.284;2023-04-24T01:03:52;10.50;99.90
32097;DHT22;18610;49.916;8.284;2023-04-24T01:06:20;10.50;99.90
32097;DHT22;18610;49.916;8.284;2023-04-24T01:08:47;10.50;99.90
32097;DHT22;18610;49.916;8.284;2023-04-24T01:11:14;10.50;99.90
32097;DHT22;18610;49.916;8.284;2023-04-24T01:13:41;10.50;99.90
32097;DHT22;18610;49.916;8.284;2023-04-24T01:16:09;10.60;99.90
32097;DHT22;18610;49.916;8.284;2023-04-24T01:18:38;10.60;99.90
32097;DHT22;18610;49.916;8.284;2023-04-24T01:21:05;10.60;99.90
32097;DHT22;18610;49.916;8.284;2023-04-24T01:23:34;10.70;99.90
32097;DHT22;18610;49.916;8.284;2023-04-24T01:26:01;10.70;99.90
32097;DHT22;18610;49.916;8.284;2023-04-24T01:28:28;10.70;99.90
32097;DHT22;18610;49.916;8.284;2023-04-24T01:30:55;10.70;99.90
32097;DHT22;18610;49.916;8.284;2023-04-24T01:33:22;10.70;99.90
32097;DHT22;18610;49.916;8.284;2023-04-24T01:35:49;10.80;99.90
32097;DHT22;18610;49.916;8.284;2023-04-24T01:38:16;10.80;99.90
32097;DHT22;18610;49.916;8.284;2023-04-24T01:40:44;10.70;99.90
32097;DHT22;18610;49.916;8.284;2023-04-24T01:43:12;10.80;99.90
32097;DHT22;18610;49.916;8.284;2023-04-24T01:45:39;10.80;99.90
32097;DHT22;18610;49.916;8.284;2023-04-24T01:48:06;10.80;99.90
32097;DHT22;18610;49.916;8.284;2023-04-24T01:50:32;10.80;99.90
32097;DHT22;18610;49.916;8.284;2023-04-24T01:52:59;10.70;99.90
32097;DHT22;18610;49.916;8.284;2023-04-24T01:55:26;10.80;99.90
32097;DHT22;18610;49.916;8.284;2023-04-24T01:57:56;10.70;99.90
32097;DHT22;18610;49.916;8.284;2023-04-24T02:00:22;10.70;99.90
32097;DHT22;18610;49.916;8.284;2023-04-24T02:02:49;10.60;99.90
32097;DHT22;18610;49.916;8.284;2023-04-24T02:05:16;10.60;99.90
32097;DHT22;18610;49.916;8.284;2023-04-24T02:07:43;10.60;99.90
32097;DHT22;18610;49.916;8.284;2023-04-24T02:10:10;10.60;99.90
32097;DHT22;18610;49.916;8.284;2023-04-24T02:12:37;10.60;99.90
32097;DHT22;18610;49.916;8.284;2023-04-24T02:15:06;10.60;99.90
32097;DHT22;18610;49.916;8.284;2023-04-24T02:17:32;10.70;99.90
32097;DHT22;18610;49.916;8.284;2023-04-24T02:19:59;10.70;99.90
32097;DHT22;18610;49.916;8.284;2023-04-24T02:22:26;10.70;99.90
32097;DHT22;18610;49.916;8.284;2023-04-24T02:24:53;10.70;99.90
32097;DHT22;18610;49.916;8.284;2023-04-24T02:27:19;10.70;99.90
32097;DHT22;18610;49.916;8.284;2023-04-24T02:29:46;10.80;99.90
32097;DHT22;18610;49.916;8.284;2023-04-24T02:32:14;10.70;99.90
32097;DHT22;18610;49.916;8.284;2023-04-24T02:34:41;10.70;99.90
32097;DHT22;18610;49.916;8.284;2023-04-24T02:37:08;10.70;99.90
32097;DHT22;18610;49.916;8.284;2023-04-24T02:39:35;10.70;99.90
32097;DHT22;18610;49.916;8.284;2023-04-24T02:42:04;10.70;99.90
32097;DHT22;18610;49.916;8.284;2023-04-24T02:44:31;10.60;99.90
32097;DHT22;18610;49.916;8.284;2023-04-24T02:46:57;10.60;99.90
32097;DHT22;18610;49.916;8.284;2023-04-24T02:49:25;10.60;99.90
32097;DHT22;18610;49.916;8.284;2023-04-24T02:51:52;10.60;99.90
32097;DHT22;18610;49.916;8.284;2023-04-24T02:54:19;10.60;99.90
32097;DHT22;18610;49.916;8.284;2023-04-24T02:56:46;10.70;99.90
32097;DHT22;18610;49.916;8.284;2023-04-24T02:59:13;10.70;99.90
32097;DHT22;18610;49.916;8.284;2023-04-24T03:01:39;10.70;99.90
32097;DHT22;18610;49.916;8.284;2023-04-24T03:04:06;10.70;99.90
32097;DHT22;18610;49.916;8.284;2023-04-24T03:06:34;10.70;99.90
32097;DHT22;18610;49.916;8.284;2023-04-24T03:09:01;10.70;99.90
32097;DHT22;18610;49.916;8.284;2023-04-24T03:11:28;10.70;99.90
32097;DHT22;18610;49.916;8.284;2023-04-24T03:13:55;10.70;99.90
32097;DHT22;18610;49.916;8.284;2023-04-24T03:16:22;10.70;99.90
32097;DHT22;18610;49.916;8.284;2023-04-24T03:18:48;10.70;99.90
32097;DHT22;18610;49.916;8.284;2023-04-24T03:21:15;10.60;99.90
32097;DHT22;18610;49.916;8.284;2023-04-24T03:23:43;10.60;99.90
32097;DHT22;18610;49.916;8.284;2023-04-24T03:26:10;10.70;99.90
32097;DHT22;18610;49.916;8.284;2023-04-24T03:28:36;10.60;99.90
32097;DHT22;18610;49.916;8.284;2023-04-24T03:31:03;10.60;99.90
32097;DHT22;18610;49.916;8.284;2023-04-24T03:33:30;10.50;99.90
32097;DHT22;18610;49.916;8.284;2023-04-24T03:35:56;10.50;99.90
32097;DHT22;18610;49.916;8.284;2023-04-24T03:38:23;10.50;99.90
32097;DHT22;18610;49.916;8.284;2023-04-24T03:40:51;10.50;99.90
32097;DHT22;18610;49.916;8.284;2023-04-24T03:43:18;10.50;99.90
32097;DHT22;18610;49.916;8.284;2023-04-24T03:45:44;10.50;99.90
32097;DHT22;18610;49.916;8.284;2023-04-24T03:48:11;10.40;99.90
32097;DHT22;18610;49.916;8.284;2023-04-24T03:50:37;10.40;99.90
32097;DHT22;18610;49.916;8.284;2023-04-24T03:53:04;10.30;99.90
32097;DHT22;18610;49.916;8.284;2023-04-24T03:55:31;10.20;99.90
32097;DHT22;18610;49.916;8.284;2023-04-24T03:57:59;10.20;99.90
32097;DHT22;18610;49.916;8.284;2023-04-24T04:00:26;10.20;99.90
32097;DHT22;18610;49.916;8.284;2023-04-24T04:02:53;10.10;99.90
32097;DHT22;18610;49.916;8.284;2023-04-24T04:05:20;10.00;99.90
32097;DHT22;18610;49.916;8.284;2023-04-24T04:07:47;10.00;99.90
32097;DHT22;18610;49.916;8.284;2023-04-24T04:10:14;9.90;99.90
32097;DHT22;18610;49.916;8.284;2023-04-24T04:12:40;9.90;99.90
32097;DHT22;18610;49.916;8.284;2023-04-24T04:15:09;9.80;99.90
32097;DHT22;18610;49.916;8.284;2023-04-24T04:17:36;9.80;99.90
32097;DHT22;18610;49.916;8.284;2023-04-24T04:20:03;9.70;99.90
32097;DHT22;18610;49.916;8.284;2023-04-24T04:22:34;9.60;99.90
32097;DHT22;18610;49.916;8.284;2023-04-24T04:25:01;9.60;99.90
32097;DHT22;18610;49.916;8.284;2023-04-24T04:27:28;9.50;99.90
32097;DHT22;18610;49.916;8.284;2023-04-24T04:29:57;9.50;99.90
32097;DHT22;18610;49.916;8.284;2023-04-24T04:32:26;9.40;99.90
32097;DHT22;18610;49.916;8.284;2023-04-24T04:34:52;9.30;99.90
32097;DHT22;18610;49.916;8.284;2023-04-24T04:37:19;9.30;99.90
32097;DHT22;18610;49.916;8.284;2023-04-24T04:39:46;9.30;99.90
32097;DHT22;18610;49.916;8.284;2023-04-24T04:42:12;9.30;99.90
32097;DHT22;18610;49.916;8.284;2023-04-24T04:44:40;9.20;99.90
32097;DHT22;18610;49.916;8.284;2023-04-24T04:47:08;9.20;99.90
32097;DHT22;18610;49.916;8.284;2023-04-24T04:49:37;9.20;99.90
32097;DHT22;18610;49.916;8.284;2023-04-24T04:52:04;9.30;99.90
32097;DHT22;18610;49.916;8.284;2023-04-24T04:54:31;9.20;99.90
32097;DHT22;18610;49.916;8.284;2023-04-24T04:56:58;9.20;99.90
32097;DHT22;18610;49.916;8.284;2023-04-24T04:59:26;9.20;99.90
32097;DHT22;18610;49.916;8.284;2023-04-24T05:01:52;9.20;99.90
32097;DHT22;18610;49.916;8.284;2023-04-24T05:04:19;9.10;99.90
32097;DHT22;18610;49.916;8.284;2023-04-24T05:06:47;9.10;99.90
32097;DHT22;18610;49.916;8.284;2023-04-24T05:09:16;9.10;99.90
32097;DHT22;18610;49.916;8.284;2023-04-24T05:11:43;9.00;99.90
32097;DHT22;18610;49.916;8.284;2023-04-24T05:14:09;9.00;99.90
32097;DHT22;18610;49.916;8.284;2023-04-24T05:16:37;9.10;99.90
32097;DHT22;18610;49.916;8.284;2023-04-24T05:19:04;9.10;99.90
32097;DHT22;18610;49.916;8.284;2023-04-24T05:21:31;9.10;99.90
32097;DHT22;18610;49.916;8.284;2023-04-24T05:23:59;9.10;99.90
32097;DHT22;18610;49.916;8.284;2023-04-24T05:26:26;9.10;99.90
32097;DHT22;18610;49.916;8.284;2023-04-24T05:28:53;9.20;99.90
32097;DHT22;18610;49.916;8.284;2023-04-24T05:31:20;9.30;99.90
32097;DHT22;18610;49.916;8.284;2023-04-24T05:33:46;9.30;99.90
32097;DHT22;18610;49.916;8.284;2023-04-24T05:36:13;9.30;99.90
32097;DHT22;18610;49.916;8.284;2023-04-24T05:38:40;9.40;99.90
32097;DHT22;18610;49.916;8.284;2023-04-24T05:41:08;9.40;99.90
32097;DHT22;18610;49.916;8.284;2023-04-24T05:43:35;9.40;99.90
32097;DHT22;18610;49.916;8.284;2023-04-24T05:46:01;9.40;99.90
32097;DHT22;18610;49.916;8.284;2023-04-24T05:48:28;9.40;99.90
32097;DHT22;18610;49.916;8.284;2023-04-24T05:50:56;9.30;99.90
32097;DHT22;18610;49.916;8.284;2023-04-24T05:53:22;9.30;99.90
32097;DHT22;18610;49.916;8.284;2023-04-24T05:55:49;9.40;99.90
32097;DHT22;18610;49.916;8.284;2023-04-24T05:58:17;9.40;99.90
32097;DHT22;18610;49.916;8.284;2023-04-24T06:00:44;9.50;99.90
32097;DHT22;18610;49.916;8.284;2023-04-24T06:03:12;9.60;99.90
32097;DHT22;18610;49.916;8.284;2023-04-24T06:05:38;9.70;99.90
32097;DHT22;18610;49.916;8.284;2023-04-24T06:08:05;9.80;99.90
32097;DHT22;18610;49.916;8.284;2023-04-24T06:10:32;9.80;99.90
32097;DHT22;18610;49.916;8.284;2023-04-24T06:12:59;9.80;99.90
32097;DHT22;18610;49.916;8.284;2023-04-24T06:15:31;9.90;99.90
32097;DHT22;18610;49.916;8.284;2023-04-24T06:17:58;9.90;99.90
32097;DHT22;18610;49.916;8.284;2023-04-24T06:20:25;9.90;99.90
32097;DHT22;18610;49.916;8.284;2023-04-24T06:22:52;9.90;99.90
32097;DHT22;18610;49.916;8.284;2023-04-24T06:25:19;9.90;99.90
32097;DHT22;18610;49.916;8.284;2023-04-24T06:27:46;9.90;99.90
32097;DHT22;18610;49.916;8.284;2023-04-24T06:30:13;10.00;99.90
32097;DHT22;18610;49.916;8.284;2023-04-24T06:32:41;10.00;99.90
32097;DHT22;18610;49.916;8.284;2023-04-24T06:35:08;10.00;99.90
32097;DHT22;18610;49.916;8.284;2023-04-24T06:37:35;10.10;99.90
32097;DHT22;18610;49.916;8.284;2023-04-24T06:40:02;10.10;99.90
32097;DHT22;18610;49.916;8.284;2023-04-24T06:42:29;10.10;99.90
32097;DHT22;18610;49.916;8.284;2023-04-24T06:44:55;10.20;99.90
32097;DHT22;18610;49.916;8.284;2023-04-24T06:47:22;10.20;99.90
32097;DHT22;18610;49.916;8.284;2023-04-24T06:49:50;10.20;99.90
32097;DHT22;18610;49.916;8.284;2023-04-24T06:52:18;10.20;99.90
32097;DHT22;18610;49.916;8.284;2023-04-24T06:54:45;10.20;99.90
32097;DHT22;18610;49.916;8.284;2023-04-24T06:57:11;10.30;99.90
32097;DHT22;18610;49.916;8.284;2023-04-24T06:59:38;10.20;99.90
32097;DHT22;18610;49.916;8.284;2023-04-24T07:02:05;10.20;99.90
32097;DHT22;18610;49.916;8.284;2023-04-24T07:04:32;10.40;99.90
32097;DHT22;18610;49.916;8.284;2023-04-24T07:07:00;10.50;99.90
32097;DHT22;18610;49.916;8.284;2023-04-24T07:09:27;10.70;99.90
32097;DHT22;18610;49.916;8.284;2023-04-24T07:11:54;10.80;99.90
32097;DHT22;18610;49.916;8.284;2023-04-24T07:14:21;10.90;99.90
32097;DHT22;18610;49.916;8.284;2023-04-24T07:16:48;11.00;99.90
32097;DHT22;18610;49.916;8.284;2023-04-24T07:19:15;11.10;99.90
32097;DHT22;18610;49.916;8.284;2023-04-24T07:21:42;11.10;99.90
32097;DHT22;18610;49.916;8.284;2023-04-24T07:24:10;11.20;99.90
32097;DHT22;18610;49.916;8.284;2023-04-24T07:26:38;11.20;99.90
32097;DHT22;18610;49.916;8.284;2023-04-24T07:29:05;11.40;99.90
32097;DHT22;18610;49.916;8.284;2023-04-24T07:31:32;11.50;99.90
32097;DHT22;18610;49.916;8.284;2023-04-24T07:33:59;11.70;99.90
32097;DHT22;18610;49.916;8.284;2023-04-24T07:36:25;11.70;99.90
32097;DHT22;18610;49.916;8.284;2023-04-24T07:38:54;11.80;99.90
32097;DHT22;18610;49.916;8.284;2023-04-24T07:41:22;11.80;99.90
32097;DHT22;18610;49.916;8.284;2023-04-24T07:43:49;11.90;99.90
32097;DHT22;18610;49.916;8.284;2023-04-24T07:46:16;12.00;99.90
32097;DHT22;18610;49.916;8.284;2023-04-24T07:48:43;12.10;99.90
32097;DHT22;18610;49.916;8.284;2023-04-24T07:51:11;12.20;99.90
32097;DHT22;18610;49.916;8.284;2023-04-24T07:53:38;12.40;99.90
32097;DHT22;18610;49.916;8.284;2023-04-24T07:56:06;12.50;99.90
32097;DHT22;18610;49.916;8.284;2023-04-24T07:58:34;12.50;99.90
32097;DHT22;18610;49.916;8.284;2023-04-24T08:01:01;12.50;99.90
32097;DHT22;18610;49.916;8.284;2023-04-24T08:03:28;12.60;99.90
32097;DHT22;18610;49.916;8.284;2023-04-24T08:05:55;12.70;99.90
32097;DHT22;18610;49.916;8.284;2023-04-24T08:08:22;12.70;99.90
32097;DHT22;18610;49.916;8.284;2023-04-24T08:10:49;12.70;99.90
32097;DHT22;18610;49.916;8.284;2023-04-24T08:13:16;12.80;99.90
32097;DHT22;18610;49.916;8.284;2023-04-24T08:15:44;12.80;99.90
32097;DHT22;18610;49.916;8.284;2023-04-24T08:18:11;12.70;99.90
32097;DHT22;18610;49.916;8.284;2023-04-24T08:20:38;12.60;99.90
32097;DHT22;18610;49.916;8.284;2023-04-24T08:23:05;12.70;99.90
32097;DHT22;18610;49.916;8.284;2023-04-24T08:25:32;12.70;99.90
32097;DHT22;18610;49.916;8.284;2023-04-24T08:28:01;12.70;99.90
32097;DHT22;18610;49.916;8.284;2023-04-24T08:30:28;12.70;99.90
32097;DHT22;18610;49.916;8.284;2023-04-24T08:32:57;12.80;99.90
32097;DHT22;18610;49.916;8.284;2023-04-24T08:35:23;12.90;99.90
32097;DHT22;18610;49.916;8.284;2023-04-24T08:37:51;12.70;99.90
32097;DHT22;18610;49.916;8.284;2023-04-24T08:40:21;12.50;99.90
32097;DHT22;18610;49.916;8.284;2023-04-24T08:42:49;12.30;99.90
32097;DHT22;18610;49.916;8.284;2023-04-24T08:45:17;12.10;99.90
32097;DHT22;18610;49.916;8.284;2023-04-24T08:47:43;12.10;99.90
32097;DHT22;18610;49.916;8.284;2023-04-24T08:50:12;12.00;99.90
32097;DHT22;18610;49.916;8.284;2023-04-24T08:52:39;11.80;99.90
32097;DHT22;18610;49.916;8.284;2023-04-24T08:55:06;11.60;99.90
32097;DHT22;18610;49.916;8.284;2023-04-24T08:57:33;11.60;99.90
32097;DHT22;18610;49.916;8.284;2023-04-24T09:00:01;11.40;99.90
32097;DHT22;18610;49.916;8.284;2023-04-24T09:02:28;11.40;99.90
32097;DHT22;18610;49.916;8.284;2023-04-24T09:04:57;11.40;99.90
32097;DHT22;18610;49.916;8.284;2023-04-24T09:07:27;11.40;99.90
32097;DHT22;18610;49.916;8.284;2023-04-24T09:09:57;11.40;99.90
32097;DHT22;18610;49.916;8.284;2023-04-24T09:12:24;11.50;99.90
32097;DHT22;18610;49.916;8.284;2023-04-24T09:14:51;11.60;99.90
32097;DHT22;18610;49.916;8.284;2023-04-24T09:17:18;11.80;99.90
32097;DHT22;18610;49.916;8.284;2023-04-24T09:19:45;12.00;99.90
32097;DHT22;18610;49.916;8.284;2023-04-24T09:22:12;12.10;99.90
32097;DHT22;18610;49.916;8.284;2023-04-24T09:24:40;12.20;99.90
32097;DHT22;18610;49.916;8.284;2023-04-24T09:27:07;12.20;99.90
32097;DHT22;18610;49.916;8.284;2023-04-24T09:29:34;12.10;99.90
32097;DHT22;18610;49.916;8.284;2023-04-24T09:32:18;11.90;99.90
32097;DHT22;18610;49.916;8.284;2023-04-24T09:34:47;11.80;99.90
32097;DHT22;18610;49.916;8.284;2023-04-24T09:37:27;11.80;99.90
32097;DHT22;18610;49.916;8.284;2023-04-24T09:40:09;11.70;99.90
32097;DHT22;18610;49.916;8.284;2023-04-24T09:42:37;11.70;99.90
32097;DHT22;18610;49.916;8.284;2023-04-24T09:45:06;11.90;99.90
32097;DHT22;18610;49.916;8.284;2023-04-24T09:47:36;12.10;99.90
32097;DHT22;18610;49.916;8.284;2023-04-24T09:50:09;12.10;99.90
32097;DHT22;18610;49.916;8.284;2023-04-24T09:52:40;12.00;99.90
32097;DHT22;18610;49.916;8.284;2023-04-24T09:55:13;11.90;99.90
32097;DHT22;18610;49.916;8.284;2023-04-24T09:57:47;11.80;99.90
32097;DHT22;18610;49.916;8.284;2023-04-24T10:00:18;11.70;99.90
32097;DHT22;18610;49.916;8.284;2023-04-24T10:02:50;11.60;99.90
32097;DHT22;18610;49.916;8.284;2023-04-24T10:05:17;11.50;99.90
32097;DHT22;18610;49.916;8.284;2023-04-24T10:07:44;11.40;99.90
32097;DHT22;18610;49.916;8.284;2023-04-24T10:10:13;11.40;99.90
32097;DHT22;18610;49.916;8.284;2023-04-24T10:12:40;11.40;99.90
32097;DHT22;18610;49.916;8.284;2023-04-24T10:15:10;11.50;99.90
32097;DHT22;18610;49.916;8.284;2023-04-24T10:17:38;11.70;99.90
32097;DHT22;18610;49.916;8.284;2023-04-24T10:20:06;12.00;99.90
32097;DHT22;18610;49.916;8.284;2023-04-24T10:22:33;12.10;99.90
32097;DHT22;18610;49.916;8.284;2023-04-24T10:25:03;12.30;99.90
32097;DHT22;18610;49.916;8.284;2023-04-24T10:27:32;12.40;99.90
32097;DHT22;18610;49.916;8.284;2023-04-24T10:30:00;12.50;99.90
32097;DHT22;18610;49.916;8.284;2023-04-24T10:32:26;12.40;99.90
32097;DHT22;18610;49.916;8.284;2023-04-24T10:34:54;12.20;99.90
32097;DHT22;18610;49.916;8.284;2023-04-24T10:37:23;12.10;99.90
32097;DHT22;18610;49.916;8.284;2023-04-24T10:39:51;12.00;99.90
32097;DHT22;18610;49.916;8.284;2023-04-24T10:42:20;11.90;99.90
32097;DHT22;18610;49.916;8.284;2023-04-24T10:44:48;11.70;99.90
32097;DHT22;18610;49.916;8.284;2023-04-24T10:47:15;11.40;99.90
32097;DHT22;18610;49.916;8.284;2023-04-24T10:49:42;11.20;99.90
32097;DHT22;18610;49.916;8.284;2023-04-24T10:52:09;11.20;99.90
32097;DHT22;18610;49.916;8.284;2023-04-24T10:54:42;11.20;99.90
32097;DHT22;18610;49.916;8.284;2023-04-24T10:57:26;11.10;99.90
32097;DHT22;18610;49.916;8.284;2023-04-24T11:00:19;11.00;99.90
32097;DHT22;18610;49.916;8.284;2023-04-24T11:02:47;11.00;99.90
32097;DHT22;18610;49.916;8.284;2023-04-24T11:05:19;11.00;99.90
32097;DHT22;18610;49.916;8.284;2023-04-24T11:08:14;11.00;99.90
32097;DHT22;18610;49.916;8.284;2023-04-24T11:10:44;11.00;99.90
32097;DHT22;18610;49.916;8.284;2023-04-24T11:13:14;11.00;99.90
32097;DHT22;18610;49.916;8.284;2023-04-24T11:15:42;11.00;99.90
32097;DHT22;18610;49.916;8.284;2023-04-24T11:18:13;10.90;99.90
32097;DHT22;18610;49.916;8.284;2023-04-24T11:20:42;10.80;99.90
32097;DHT22;18610;49.916;8.284;2023-04-24T11:23:09;10.80;99.90
32097;DHT22;18610;49.916;8.284;2023-04-24T11:25:38;10.80;99.90
32097;DHT22;18610;49.916;8.284;2023-04-24T11:28:06;10.80;99.90
32097;DHT22;18610;49.916;8.284;2023-04-24T11:30:33;10.80;99.90
32097;DHT22;18610;49.916;8.284;2023-04-24T11:33:04;10.90;99.90
32097;DHT22;18610;49.916;8.284;2023-04-24T11:35:35;10.80;99.90
32097;DHT22;18610;49.916;8.284;2023-04-24T11:38:06;10.80;99.90
32097;DHT22;18610;49.916;8.284;2023-04-24T11:40:34;10.90;99.90
32097;DHT22;18610;49.916;8.284;2023-04-24T11:43:00;10.80;99.90
32097;DHT22;18610;49.916;8.284;2023-04-24T11:45:28;11.00;99.90
32097;DHT22;18610;49.916;8.284;2023-04-24T11:47:56;11.10;99.90
32097;DHT22;18610;49.916;8.284;2023-04-24T11:50:26;11.30;99.90
32097;DHT22;18610;49.916;8.284;2023-04-24T11:52:55;11.70;99.90
32097;DHT22;18610;49.916;8.284;2023-04-24T11:55:24;12.20;99.90
32097;DHT22;18610;49.916;8.284;2023-04-24T11:57:53;12.70;99.90
32097;DHT22;18610;49.916;8.284;2023-04-24T12:00:23;13.20;99.90
32097;DHT22;18610;49.916;8.284;2023-04-24T12:02:50;13.50;99.90
32097;DHT22;18610;49.916;8.284;2023-04-24T12:05:20;13.90;99.90
32097;DHT22;18610;49.916;8.284;2023-04-24T12:07:49;14.40;99.90
32097;DHT22;18610;49.916;8.284;2023-04-24T12:10:20;14.80;99.90
32097;DHT22;18610;49.916;8.284;2023-04-24T12:12:51;15.10;99.90
32097;DHT22;18610;49.916;8.284;2023-04-24T12:15:18;15.40;99.90
32097;DHT22;18610;49.916;8.284;2023-04-24T12:17:47;15.40;99.90
32097;DHT22;18610;49.916;8.284;2023-04-24T12:20:14;15.20;99.90
32097;DHT22;18610;49.916;8.284;2023-04-24T12:22:46;15.30;99.90
32097;DHT22;18610;49.916;8.284;2023-04-24T12:25:15;15.10;99.90
32097;DHT22;18610;49.916;8.284;2023-04-24T12:27:43;15.00;99.90
32097;DHT22;18610;49.916;8.284;2023-04-24T12:30:12;14.80;99.90
32097;DHT22;18610;49.916;8.284;2023-04-24T12:32:42;15.10;99.90
32097;DHT22;18610;49.916;8.284;2023-04-24T12:35:09;15.10;99.80
32097;DHT22;18610;49.916;8.284;2023-04-24T12:37:36;15.30;99.80
32097;DHT22;18610;49.916;8.284;2023-04-24T12:40:06;15.50;99.00
32097;DHT22;18610;49.916;8.284;2023-04-24T12:42:43;15.60;98.10
32097;DHT22;18610;49.916;8.284;2023-04-24T12:45:11;15.60;97.50
32097;DHT22;18610;49.916;8.284;2023-04-24T12:47:39;15.70;98.50
32097;DHT22;18610;49.916;8.284;2023-04-24T12:50:07;16.10;97.60
32097;DHT22;18610;49.916;8.284;2023-04-24T12:52:34;16.20;94.20
32097;DHT22;18610;49.916;8.284;2023-04-24T12:55:01;16.10;93.40
32097;DHT22;18610;49.916;8.284;2023-04-24T12:57:29;16.00;94.00
32097;DHT22;18610;49.916;8.284;2023-04-24T12:59:58;16.00;94.20
32097;DHT22;18610;49.916;8.284;2023-04-24T13:02:28;16.00;95.70
32097;DHT22;18610;49.916;8.284;2023-04-24T13:04:55;16.30;95.40
32097;DHT22;18610;49.916;8.284;2023-04-24T13:07:22;16.60;94.50
32097;DHT22;18610;49.916;8.284;2023-04-24T13:09:50;16.70;94.30
32097;DHT22;18610;49.916;8.284;2023-04-24T13:12:17;16.90;91.70
32097;DHT22;18610;49.916;8.284;2023-04-24T13:14:44;16.60;91.40
32097;DHT22;18610;49.916;8.284;2023-04-24T13:17:13;16.30;92.10
32097;DHT22;18610;49.916;8.284;2023-04-24T13:19:41;15.80;92.10
32097;DHT22;18610;49.916;8.284;2023-04-24T13:22:09;15.60;92.80
32097;DHT22;18610;49.916;8.284;2023-04-24T13:24:37;15.40;92.20
32097;DHT22;18610;49.916;8.284;2023-04-24T13:27:05;15.40;93.70
32097;DHT22;18610;49.916;8.284;2023-04-24T13:29:32;15.50;93.60
32097;DHT22;18610;49.916;8.284;2023-04-24T13:31:59;15.50;94.60
32097;DHT22;18610;49.916;8.284;2023-04-24T13:34:27;15.60;93.90
32097;DHT22;18610;49.916;8.284;2023-04-24T13:36:55;16.10;94.50
32097;DHT22;18610;49.916;8.284;2023-04-24T13:39:23;16.30;93.20
32097;DHT22;18610;49.916;8.284;2023-04-24T13:41:50;16.70;91.80
32097;DHT22;18610;49.916;8.284;2023-04-24T13:44:17;17.10;90.40
32097;DHT22;18610;49.916;8.284;2023-04-24T13:46:46;17.00;86.70
32097;DHT22;18610;49.916;8.284;2023-04-24T13:49:14;17.20;89.90
32097;DHT22;18610;49.916;8.284;2023-04-24T13:51:43;16.90;88.50
32097;DHT22;18610;49.916;8.284;2023-04-24T13:54:11;16.50;86.60
32097;DHT22;18610;49.916;8.284;2023-04-24T13:56:38;16.20;89.60
32097;DHT22;18610;49.916;8.284;2023-04-24T13:59:05;15.70;89.30
32097;DHT22;18610;49.916;8.284;2023-04-24T14:01:32;15.20;90.40
32097;DHT22;18610;49.916;8.284;2023-04-24T14:04:01;14.90;91.70
32097;DHT22;18610;49.916;8.284;2023-04-24T14:06:28;14.60;92.70
32097;DHT22;18610;49.916;8.284;2023-04-24T14:08:56;14.50;92.70
32097;DHT22;18610;49.916;8.284;2023-04-24T14:11:23;14.40;92.80
32097;DHT22;18610;49.916;8.284;2023-04-24T14:13:50;14.20;93.80
32097;DHT22;18610;49.916;8.284;2023-04-24T14:16:17;14.20;93.70
32097;DHT22;18610;49.916;8.284;2023-04-24T14:18:44;14.20;93.50
32097;DHT22;18610;49.916;8.284;2023-04-24T14:21:10;14.30;94.10
32097;DHT22;18610;49.916;8.284;2023-04-24T14:23:37;14.30;93.00
32097;DHT22;18610;49.916;8.284;2023-04-24T14:26:06;14.30;93.10
32097;DHT22;18610;49.916;8.284;2023-04-24T14:28:33;14.30;93.60
32097;DHT22;18610;49.916;8.284;2023-04-24T14:30:59;14.30;94.40
32097;DHT22;18610;49.916;8.284;2023-04-24T14:33:26;14.20;94.20
32097;DHT22;18610;49.916;8.284;2023-04-24T14:35:53;14.10;95.30
32097;DHT22;18610;49.916;8.284;2023-04-24T14:38:21;14.50;96.30
32097;DHT22;18610;49.916;8.284;2023-04-24T14:40:48;14.90;95.90
32097;DHT22;18610;49.916;8.284;2023-04-24T14:43:16;15.00;95.40
32097;DHT22;18610;49.916;8.284;2023-04-24T14:45:42;15.20;95.20
32097;DHT22;18610;49.916;8.284;2023-04-24T14:48:09;15.50;94.80
32097;DHT22;18610;49.916;8.284;2023-04-24T14:50:39;15.90;95.00
32097;DHT22;18610;49.916;8.284;2023-04-24T14:53:06;16.00;93.10
32097;DHT22;18610;49.916;8.284;2023-04-24T14:55:33;16.10;92.00
32097;DHT22;18610;49.916;8.284;2023-04-24T14:58:01;15.70;91.40
32097;DHT22;18610;49.916;8.284;2023-04-24T15:00:30;15.40;91.00
32097;DHT22;18610;49.916;8.284;2023-04-24T15:02:57;15.30;92.00
32097;DHT22;18610;49.916;8.284;2023-04-24T15:05:24;15.20;90.70
32097;DHT22;18610;49.916;8.284;2023-04-24T15:07:51;15.10;90.90
32097;DHT22;18610;49.916;8.284;2023-04-24T15:10:18;15.10;91.80
32097;DHT22;18610;49.916;8.284;2023-04-24T15:12:48;15.10;91.70
32097;DHT22;18610;49.916;8.284;2023-04-24T15:15:15;15.20;91.90
32097;DHT22;18610;49.916;8.284;2023-04-24T15:17:43;15.10;92.70
32097;DHT22;18610;49.916;8.284;2023-04-24T15:20:11;15.00;92.80
32097;DHT22;18610;49.916;8.284;2023-04-24T15:22:38;14.80;93.00
32097;DHT22;18610;49.916;8.284;2023-04-24T15:25:05;14.80;93.60
32097;DHT22;18610;49.916;8.284;2023-04-24T15:27:40;14.90;93.40
32097;DHT22;18610;49.916;8.284;2023-04-24T15:30:08;14.90;94.10
32097;DHT22;18610;49.916;8.284;2023-04-24T15:32:35;14.90;94.40
32097;DHT22;18610;49.916;8.284;2023-04-24T15:35:04;14.90;94.20